createdAt,value
2023-05-05T00:02:51.224Z,0.65
2023-05-05T00:07:53.304Z,0.80
2023-05-05T00:12:55.343Z,1.17
2023-05-05T00:17:57.312Z,0.75
2023-05-05T00:22:59.373Z,1.08
2023-05-05T00:28:02.288Z,0.88
2023-05-05T00:33:04.456Z,0.88
2023-05-05T00:38:07.534Z,0.75
2023-05-05T00:43:09.604Z,0.98
2023-05-05T00:48:12.045Z,0.82
2023-05-05T00:53:14.363Z,1.15
2023-05-05T00:58:16.409Z,0.65
2023-05-05T01:03:18.654Z,0.88
2023-05-05T01:08:52.601Z,0.98
2023-05-05T01:14:14.864Z,0.93
2023-05-05T01:19:19.652Z,1.00
2023-05-05T01:24:37.130Z,0.90
2023-05-05T01:29:48.180Z,0.82
2023-05-05T01:35:02.964Z,0.85
2023-05-05T01:40:30.605Z,0.70
2023-05-05T01:45:36.182Z,1.10
2023-05-05T01:50:39.848Z,0.70
2023-05-05T01:55:43.014Z,0.90
2023-05-05T02:00:45.143Z,1.33
2023-05-05T02:05:48.860Z,0.90
2023-05-05T02:10:51.675Z,1.10
2023-05-05T02:15:54.854Z,1.25
2023-05-05T02:20:56.955Z,1.40
2023-05-05T02:26:07.415Z,1.30
2023-05-05T02:31:11.401Z,1.02
2023-05-05T02:36:26.310Z,1.05
2023-05-05T02:41:29.967Z,1.00
2023-05-05T02:46:32.634Z,0.90
2023-05-05T02:51:34.884Z,1.33
2023-05-05T02:56:43.568Z,1.17
2023-05-05T03:01:57.516Z,1.20
2023-05-05T03:07:14.491Z,1.20
2023-05-05T03:12:22.845Z,1.38
2023-05-05T03:17:26.230Z,1.00
2023-05-05T03:22:28.525Z,1.50
2023-05-05T03:27:30.917Z,1.50
2023-05-05T03:32:33.137Z,1.30
2023-05-05T03:37:35.233Z,1.35
2023-05-05T03:42:37.433Z,0.95
2023-05-05T03:47:39.430Z,0.98
2023-05-05T03:52:41.481Z,1.00
2023-05-05T03:57:43.448Z,1.10
2023-05-05T04:02:45.874Z,1.08
2023-05-05T04:07:47.939Z,0.80
2023-05-05T04:12:49.927Z,1.05
2023-05-05T04:17:51.963Z,1.13
2023-05-05T04:22:53.788Z,0.90
2023-05-05T04:27:55.850Z,1.23
2023-05-05T04:32:57.814Z,1.08
2023-05-05T04:37:59.848Z,1.15
2023-05-05T04:43:02.441Z,1.00
2023-05-05T04:48:05.551Z,1.55
2023-05-05T04:53:07.621Z,1.17
2023-05-05T04:58:09.601Z,0.93
2023-05-05T05:03:11.983Z,1.15
2023-05-05T05:08:16.491Z,0.90
2023-05-05T05:13:18.597Z,1.10
2023-05-05T05:18:20.850Z,1.42
2023-05-05T05:23:22.883Z,1.00
2023-05-05T05:28:24.832Z,0.95
2023-05-05T05:33:26.829Z,1.00
2023-05-05T05:38:28.791Z,1.25
2023-05-05T05:43:31.131Z,1.30
2023-05-05T05:48:33.245Z,1.40
2023-05-05T05:53:35.406Z,0.90
2023-05-05T05:58:37.592Z,0.70
2023-05-05T06:03:39.796Z,1.02
2023-05-05T06:08:41.838Z,1.05
2023-05-05T06:13:44.083Z,0.93
2023-05-05T06:18:46.098Z,1.38
2023-05-05T06:23:48.071Z,0.95
2023-05-05T06:28:50.032Z,1.25
2023-05-05T06:33:52.076Z,0.93
2023-05-05T06:38:54.156Z,1.00
2023-05-05T06:43:55.994Z,1.02
2023-05-05T06:48:58.004Z,1.20
2023-05-05T06:54:00.173Z,1.70
2023-05-05T06:59:02.099Z,1.00
2023-05-05T07:04:04.149Z,1.63
2023-05-05T07:09:06.443Z,1.23
2023-05-05T07:14:08.392Z,1.33
2023-05-05T07:19:10.358Z,1.15
2023-05-05T07:24:12.346Z,1.58
2023-05-05T07:29:14.434Z,1.40
2023-05-05T07:34:16.274Z,1.77
2023-05-05T07:39:19.840Z,2.47
2023-05-05T07:44:21.815Z,2.88
2023-05-05T07:49:23.757Z,2.90
2023-05-05T07:54:25.750Z,2.50
2023-05-05T07:59:27.904Z,2.33
2023-05-05T08:04:29.935Z,1.83
2023-05-05T08:09:32.505Z,1.85
2023-05-05T08:14:34.545Z,1.80
2023-05-05T08:19:36.449Z,1.98
2023-05-05T08:24:38.384Z,1.63
2023-05-05T08:29:40.809Z,1.95
2023-05-05T08:34:42.982Z,1.55
2023-05-05T08:39:45.225Z,1.52
2023-05-05T08:44:47.208Z,2.00
2023-05-05T08:49:49.608Z,2.53
2023-05-05T08:54:55.666Z,1.67
2023-05-05T08:59:59.255Z,2.20
2023-05-05T09:05:05.455Z,1.85
2023-05-05T09:10:10.085Z,2.08
2023-05-05T09:15:14.855Z,1.38
2023-05-05T09:20:17.021Z,1.95
2023-05-05T09:25:19.312Z,1.90
2023-05-05T09:30:25.809Z,1.02
2023-05-05T09:35:27.676Z,1.60
2023-05-05T09:40:46.870Z,1.67
2023-05-05T09:45:49.752Z,1.88
2023-05-05T09:50:52.112Z,1.70
2023-05-05T09:55:58.322Z,1.55
2023-05-05T10:01:00.937Z,2.05
2023-05-05T10:06:04.994Z,1.60
2023-05-05T10:11:07.507Z,1.98
2023-05-05T10:16:12.521Z,1.65
2023-05-05T10:21:20.230Z,2.10
2023-05-05T10:26:23.838Z,2.50
2023-05-05T10:31:45.853Z,1.80
2023-05-05T10:36:49.598Z,1.83
2023-05-05T10:41:52.572Z,1.67
2023-05-05T10:46:54.758Z,2.05
2023-05-05T10:52:14.537Z,2.30
2023-05-05T10:57:22.716Z,2.90
2023-05-05T11:02:31.664Z,1.85
2023-05-05T11:07:34.869Z,2.03
2023-05-05T11:13:02.862Z,1.58
2023-05-05T11:18:07.503Z,1.40
2023-05-05T11:23:10.449Z,1.77
2023-05-05T11:28:31.285Z,1.25
2023-05-05T11:33:37.987Z,1.08
2023-05-05T11:38:59.728Z,0.85
2023-05-05T11:44:17.944Z,1.13
2023-05-05T11:49:33.218Z,0.85
2023-05-05T11:54:37.125Z,0.77
2023-05-05T11:59:51.977Z,1.02
2023-05-05T12:04:54.417Z,0.95
2023-05-05T12:09:56.554Z,0.65
2023-05-05T12:14:58.880Z,0.80
2023-05-05T12:20:00.878Z,1.15
2023-05-05T12:25:05.515Z,1.15
2023-05-05T12:30:20.738Z,0.90
2023-05-05T12:35:22.803Z,0.60
2023-05-05T12:40:45.798Z,0.50
2023-05-05T12:45:48.005Z,0.63
2023-05-05T12:50:50.069Z,0.70
2023-05-05T12:55:52.361Z,0.70
2023-05-05T13:01:12.863Z,0.50
2023-05-05T13:06:21.457Z,0.70
2023-05-05T13:11:23.315Z,1.10
2023-05-05T13:16:25.502Z,0.90
2023-05-05T13:21:28.411Z,0.60
2023-05-05T13:26:30.305Z,1.10
2023-05-05T13:31:32.282Z,0.85
2023-05-05T13:36:35.120Z,0.77
2023-05-05T13:41:37.221Z,0.52
2023-05-05T13:46:39.444Z,1.15
2023-05-05T13:51:41.603Z,1.35
2023-05-05T13:56:44.045Z,0.47
2023-05-05T14:01:45.968Z,0.88
2023-05-05T14:06:48.259Z,0.70
2023-05-05T14:11:50.463Z,0.73
2023-05-05T14:16:52.796Z,0.77
2023-05-05T14:21:54.810Z,0.80
2023-05-05T14:26:57.374Z,0.70
2023-05-05T14:31:59.453Z,0.90
2023-05-05T14:37:01.716Z,0.70
2023-05-05T14:42:04.055Z,0.30
2023-05-05T14:47:06.044Z,0.47
2023-05-05T14:52:08.078Z,0.50
2023-05-05T14:57:10.024Z,0.25
2023-05-05T15:02:11.892Z,0.50
2023-05-05T15:07:13.792Z,0.50
2023-05-05T15:12:15.809Z,0.25
2023-05-05T15:17:17.988Z,0.47
2023-05-05T15:22:19.991Z,0.40
2023-05-05T15:27:22.119Z,0.43
2023-05-05T15:32:24.153Z,0.98
2023-05-05T15:37:28.690Z,0.50
2023-05-05T15:42:33.021Z,0.43
2023-05-05T15:47:35.110Z,0.60
2023-05-05T15:52:37.193Z,0.63
2023-05-05T15:57:42.029Z,0.43
2023-05-05T16:02:45.250Z,0.60
2023-05-05T16:07:47.485Z,0.40
2023-05-05T16:12:49.991Z,0.50
2023-05-05T16:17:52.151Z,0.50
2023-05-05T16:22:54.289Z,0.45
2023-05-05T16:27:57.859Z,0.30
2023-05-05T16:32:59.876Z,0.30
2023-05-05T16:38:01.826Z,0.90
2023-05-05T16:43:04.293Z,0.30
2023-05-05T16:48:08.788Z,0.30
2023-05-05T16:53:11.427Z,0.50
2023-05-05T16:58:13.339Z,0.25
2023-05-05T17:03:16.975Z,0.38
2023-05-05T17:08:19.168Z,0.40
2023-05-05T17:13:21.119Z,0.40
2023-05-05T17:18:26.160Z,0.35
2023-05-05T17:23:28.428Z,0.20
2023-05-05T17:28:30.300Z,0.43
2023-05-05T17:33:32.523Z,0.30
2023-05-05T17:38:34.700Z,0.20
2023-05-05T17:43:37.002Z,0.30
2023-05-05T17:48:39.060Z,0.50
2023-05-05T17:53:41.253Z,0.50
2023-05-05T17:58:43.302Z,0.20
2023-05-05T18:03:45.466Z,0.13
2023-05-05T18:08:48.048Z,0.30
2023-05-05T18:13:50.156Z,0.30
2023-05-05T18:18:52.240Z,0.30
2023-05-05T18:23:57.330Z,0.28
2023-05-05T18:29:04.007Z,0.32
2023-05-05T18:34:06.231Z,0.57
2023-05-05T18:39:08.999Z,0.25
2023-05-05T18:44:11.199Z,0.30
2023-05-05T18:49:13.452Z,0.30
2023-05-05T18:54:15.504Z,0.30
2023-05-05T18:59:17.505Z,0.32
2023-05-05T19:04:30.723Z,0.30
2023-05-05T19:09:33.922Z,0.20
2023-05-05T19:14:35.980Z,0.20
2023-05-05T19:19:37.988Z,0.30
2023-05-05T19:24:40.093Z,0.10
2023-05-05T19:29:42.258Z,0.20
2023-05-05T19:34:44.192Z,0.13
2023-05-05T19:39:46.287Z,0.10
2023-05-05T19:44:48.445Z,0.32
2023-05-05T19:49:50.653Z,0.20
2023-05-05T19:54:52.651Z,0.20
2023-05-05T19:59:54.571Z,0.28
2023-05-05T20:04:58.094Z,0.20
2023-05-05T20:10:01.028Z,0.22
2023-05-05T20:15:03.484Z,0.30
2023-05-05T20:20:05.836Z,0.25
2023-05-05T20:25:08.270Z,0.20
2023-05-05T20:30:11.068Z,0.30
2023-05-05T20:35:13.363Z,0.40
2023-05-05T20:40:15.544Z,0.20
2023-05-05T20:45:17.668Z,0.32
2023-05-05T20:50:20.858Z,1.02
2023-05-05T20:55:23.064Z,0.30
2023-05-05T21:00:25.338Z,0.40
2023-05-05T21:05:27.433Z,0.50
2023-05-05T21:10:29.562Z,0.20
2023-05-05T21:15:33.243Z,0.40
2023-05-05T21:20:36.281Z,0.60
2023-05-05T21:25:38.225Z,0.50
2023-05-05T21:30:40.301Z,0.70
2023-05-05T21:35:42.388Z,0.55
2023-05-05T21:40:44.670Z,0.28
2023-05-05T21:45:47.044Z,0.30
2023-05-05T21:50:49.046Z,0.40
2023-05-05T21:55:51.441Z,0.50
2023-05-05T22:00:53.470Z,0.93
2023-05-05T22:05:55.410Z,0.57
2023-05-05T22:10:57.353Z,0.70
2023-05-05T22:15:59.389Z,0.80
2023-05-05T22:21:02.364Z,0.50
2023-05-05T22:26:05.072Z,0.70
2023-05-05T22:31:07.213Z,0.65
2023-05-05T22:36:10.510Z,0.65
2023-05-05T22:41:12.864Z,0.60
2023-05-05T22:46:15.461Z,0.40
2023-05-05T22:51:17.370Z,0.40
2023-05-05T22:56:19.573Z,0.30
2023-05-05T23:01:21.663Z,0.55
2023-05-05T23:06:24.015Z,0.68
2023-05-05T23:11:26.792Z,0.75
2023-05-05T23:16:28.907Z,0.55
2023-05-05T23:21:33.989Z,0.52
2023-05-05T23:26:38.225Z,0.43
2023-05-05T23:31:40.311Z,0.40
2023-05-05T23:36:42.406Z,0.50
2023-05-05T23:41:44.493Z,0.52
2023-05-05T23:46:46.920Z,0.30
2023-05-05T23:51:49.109Z,0.45
2023-05-05T23:56:50.981Z,1.02
